Time;durP1;ratioP1;P1;durP2;ratioP2;P2;SDS_P1;SDS_P2;PMS_P1;PMS_P2;Temp;Humidity;BMP_temperature;BMP_pressure;BME280_temperature;BME280_humidity;BME280_pressure;Samples;Min_cycle;Max_cycle;Signal;HPM_P1;HPM_P2
2023/06/11 00:01:01;;;;;;;2.35;2.25;;;;;;;;;;6310705;28;20266;-71
2023/06/11 00:04:07;;;;;;;3.47;2.00;;;;;;;;;;6308424;28;20453;-72
2023/06/11 00:07:12;;;;;;;2.15;2.05;;;;;;;;;;6309371;28;20282;-72
2023/06/11 00:10:19;;;;;;;2.92;2.22;;;;;;;;;;6308719;28;20294;-72
2023/06/11 00:13:24;;;;;;;4.45;2.05;;;;;;;;;;6308203;28;20303;-72
2023/06/11 00:16:33;;;;;;;1.88;1.80;;;;;;;;;;6309301;28;20270;-72
2023/06/11 00:19:40;;;;;;;2.35;2.20;;;;;;;;;;6308975;28;20296;-72
2023/06/11 00:22:46;;;;;;;3.65;1.98;;;;;;;;;;6308735;28;20311;-72
2023/06/11 00:25:53;;;;;;;1.67;1.67;;;;;;;;;;6308855;28;20293;-71
2023/06/11 00:28:58;;;;;;;2.10;2.00;;;;;;;;;;6308423;28;20464;-71
2023/06/11 00:32:04;;;;;;;5.50;2.25;;;;;;;;;;6310160;28;20450;-71
2023/06/11 00:35:10;;;;;;;2.67;1.80;;;;;;;;;;6312984;28;20294;-72
2023/06/11 00:38:16;;;;;;;2.95;1.85;;;;;;;;;;6295064;28;20314;-72
2023/06/11 00:41:29;;;;;;;3.10;1.85;;;;;;;;;;6313064;28;20286;-71
2023/06/11 00:44:36;;;;;;;2.60;1.90;;;;;;;;;;6312253;28;20300;-73
2023/06/11 00:47:41;;;;;;;4.97;2.10;;;;;;;;;;6294359;28;20286;-70
2023/06/11 00:50:47;;;;;;;5.28;2.38;;;;;;;;;;6313187;28;20270;-70
2023/06/11 00:53:54;;;;;;;1.67;1.65;;;;;;;;;;6294645;28;20326;-72
2023/06/11 00:57:01;;;;;;;3.33;2.15;;;;;;;;;;6312841;28;20271;-71
2023/06/11 01:00:12;;;;;;;1.88;1.83;;;;;;;;;;6312511;28;20555;-71
2023/06/11 01:03:21;;;;;;;1.90;1.80;;;;;;;;;;6311322;28;20474;-71
2023/06/11 01:06:29;;;;;;;1.70;1.70;;;;;;;;;;6312679;28;20290;-71
2023/06/11 01:09:34;;;;;;;1.90;1.80;;;;;;;;;;6312103;28;20428;-71
2023/06/11 01:12:41;;;;;;;1.67;1.67;;;;;;;;;;6311764;28;20357;-72
2023/06/11 01:15:46;;;;;;;1.70;1.70;;;;;;;;;;6312779;28;20426;-72
2023/06/11 01:18:58;;;;;;;2.03;1.92;;;;;;;;;;6293933;28;20294;-71
2023/06/11 01:22:08;;;;;;;1.83;1.73;;;;;;;;;;6311468;28;20262;-73
2023/06/11 01:25:29;;;;;;;1.52;1.52;;;;;;;;;;6293746;28;20295;-71
2023/06/11 01:28:37;;;;;;;2.17;1.63;;;;;;;;;;6294473;28;20298;-73
2023/06/11 01:31:46;;;;;;;3.20;1.98;;;;;;;;;;6293837;28;20267;-71
2023/06/11 01:35:01;;;;;;;2.20;1.77;;;;;;;;;;6293384;28;20290;-71
2023/06/11 01:38:13;;;;;;;1.95;1.85;;;;;;;;;;6293429;28;20295;-71
2023/06/11 01:41:27;;;;;;;1.90;1.90;;;;;;;;;;6293666;28;20266;-72
2023/06/11 01:44:34;;;;;;;1.65;1.65;;;;;;;;;;6293041;28;20290;-72
2023/06/11 01:47:40;;;;;;;1.85;1.85;;;;;;;;;;6292858;28;20286;-72
2023/06/11 01:50:47;;;;;;;2.00;1.70;;;;;;;;;;6294001;28;20276;-70
2023/06/11 01:53:54;;;;;;;1.70;1.70;;;;;;;;;;6293146;28;20290;-71
2023/06/11 01:57:00;;;;;;;1.83;1.83;;;;;;;;;;6311467;28;20551;-70
2023/06/11 02:00:09;;;;;;;1.65;1.65;;;;;;;;;;6292583;28;20286;-71
2023/06/11 02:03:20;;;;;;;1.92;1.80;;;;;;;;;;6310269;28;20473;-72
2023/06/11 02:06:26;;;;;;;1.63;1.63;;;;;;;;;;6310556;28;20295;-72
2023/06/11 02:09:31;;;;;;;2.00;1.90;;;;;;;;;;6310347;28;20286;-71
2023/06/11 02:16:00;;;;;;;2.28;2.13;;;;;;;;;;6292949;28;20342;-71
2023/06/11 02:19:06;;;;;;;2.35;1.85;;;;;;;;;;6292535;28;20298;-70
2023/06/11 02:22:11;;;;;;;2.00;1.90;;;;;;;;;;6311087;28;20298;-71
2023/06/11 02:25:16;;;;;;;1.83;1.73;;;;;;;;;;6292628;28;20294;-71
2023/06/11 02:28:21;;;;;;;2.08;1.77;;;;;;;;;;6309723;28;20294;-70
2023/06/11 02:31:29;;;;;;;1.85;1.85;;;;;;;;;;6292906;28;20282;-70
2023/06/11 02:34:35;;;;;;;1.80;1.70;;;;;;;;;;6292310;28;20299;-72
2023/06/11 02:37:40;;;;;;;2.13;2.03;;;;;;;;;;6309686;28;20290;-71
2023/06/11 02:40:45;;;;;;;1.60;1.60;;;;;;;;;;6310233;28;20270;-70
2023/06/11 02:43:50;;;;;;;1.90;1.90;;;;;;;;;;6309691;28;20298;-70
2023/06/11 02:46:56;;;;;;;2.70;2.42;;;;;;;;;;6309707;28;20461;-71
2023/06/11 02:50:01;;;;;;;1.75;1.75;;;;;;;;;;6309749;28;20291;-71
2023/06/11 02:53:07;;;;;;;1.83;1.73;;;;;;;;;;6291823;28;20286;-72
2023/06/11 02:56:13;;;;;;;3.67;1.75;;;;;;;;;;6309070;28;20267;-70
2023/06/11 02:59:18;;;;;;;4.72;1.92;;;;;;;;;;6309570;28;20294;-71
2023/06/11 03:02:25;;;;;;;1.67;1.65;;;;;;;;;;6282996;28;20420;-73
2023/06/11 03:05:30;;;;;;;1.95;1.63;;;;;;;;;;6305833;28;20473;-70
2023/06/11 03:08:36;;;;;;;1.85;1.80;;;;;;;;;;6283166;28;20279;-72
2023/06/11 03:11:41;;;;;;;1.70;1.70;;;;;;;;;;6268271;28;20271;-72
2023/06/11 03:14:46;;;;;;;2.38;1.63;;;;;;;;;;6284165;28;20294;-71
2023/06/11 03:17:53;;;;;;;1.67;1.67;;;;;;;;;;6266868;28;20454;-71
2023/06/11 03:21:00;;;;;;;2.00;1.90;;;;;;;;;;6281441;28;20476;-71
2023/06/11 03:24:07;;;;;;;1.80;1.70;;;;;;;;;;6291634;28;20290;-71
2023/06/11 03:27:12;;;;;;;1.85;1.70;;;;;;;;;;6291371;28;20306;-71
2023/06/11 03:30:17;;;;;;;2.17;2.00;;;;;;;;;;6309037;28;20302;-70
2023/06/11 03:33:24;;;;;;;2.20;2.10;;;;;;;;;;6290537;28;20263;-72
2023/06/11 03:36:30;;;;;;;1.80;1.80;;;;;;;;;;6291647;28;20262;-70
2023/06/11 03:39:36;;;;;;;4.90;1.60;;;;;;;;;;6290707;28;20317;-71
2023/06/11 03:42:41;;;;;;;1.70;1.70;;;;;;;;;;6309393;28;20270;-70
2023/06/11 03:45:46;;;;;;;3.60;1.73;;;;;;;;;;6291107;28;20313;-70
2023/06/11 03:48:53;;;;;;;4.22;2.13;;;;;;;;;;6309458;28;20302;-71
2023/06/11 03:51:59;;;;;;;1.88;1.88;;;;;;;;;;6291622;28;20266;-71
2023/06/11 03:55:04;;;;;;;1.95;1.95;;;;;;;;;;6290527;28;20305;-71
2023/06/11 03:58:13;;;;;;;1.90;1.90;;;;;;;;;;6291433;28;20270;-72
2023/06/11 04:01:18;;;;;;;2.53;2.20;;;;;;;;;;6290965;28;20291;-72
2023/06/11 04:04:24;;;;;;;2.15;1.90;;;;;;;;;;6260468;28;20296;-71
2023/06/11 04:07:30;;;;;;;2.30;2.20;;;;;;;;;;6260524;28;20263;-71
2023/06/11 04:10:36;;;;;;;3.25;2.10;;;;;;;;;;6262450;28;20295;-71
2023/06/11 04:13:41;;;;;;;2.08;2.08;;;;;;;;;;6263649;28;20307;-70
2023/06/11 04:16:46;;;;;;;2.08;1.95;;;;;;;;;;6264345;28;20395;-71
2023/06/11 04:19:53;;;;;;;1.90;1.90;;;;;;;;;;6263910;28;20299;-73
2023/06/11 04:22:58;;;;;;;1.90;1.90;;;;;;;;;;6262906;28;20268;-70
2023/06/11 04:26:03;;;;;;;1.67;1.67;;;;;;;;;;6253424;28;20312;-70
2023/06/11 04:29:10;;;;;;;1.90;1.90;;;;;;;;;;6261300;28;20291;-71
2023/06/11 04:32:16;;;;;;;1.80;1.80;;;;;;;;;;6263678;28;20315;-72
2023/06/11 04:35:23;;;;;;;2.10;2.00;;;;;;;;;;6261998;28;20292;-71
2023/06/11 04:38:30;;;;;;;1.92;1.92;;;;;;;;;;6262089;28;20620;-72
2023/06/11 04:41:36;;;;;;;1.92;1.83;;;;;;;;;;6262042;28;20272;-71
2023/06/11 04:44:43;;;;;;;1.83;1.80;;;;;;;;;;6262026;28;20295;-71
2023/06/11 04:47:49;;;;;;;1.75;1.73;;;;;;;;;;6261915;28;20268;-71
2023/06/11 04:50:59;;;;;;;1.67;1.67;;;;;;;;;;6261786;28;20295;-71
2023/06/11 04:54:08;;;;;;;1.80;1.80;;;;;;;;;;6261739;28;20288;-71
2023/06/11 04:57:20;;;;;;;1.90;1.80;;;;;;;;;;6261833;28;20556;-71
2023/06/11 05:00:26;;;;;;;1.75;1.75;;;;;;;;;;6261225;28;20300;-70
2023/06/11 05:03:36;;;;;;;1.73;1.73;;;;;;;;;;6261032;28;20478;-71
2023/06/11 05:06:46;;;;;;;1.40;1.40;;;;;;;;;;6269849;28;20271;-71
2023/06/11 05:09:55;;;;;;;;;;;;;;;;;;6269759;28;20291;-71
2023/06/11 05:13:00;;;;;;;;;;;;;;;;;;6261561;28;19984;-73
2023/06/11 05:16:05;;;;;;;;;;;;;;;;;;6245102;28;20109;-71
2023/06/11 05:19:12;;;;;;;;;;;;;;;;;;6259448;28;20154;-71
2023/06/11 05:22:20;;;;;;;;;;;;;;;;;;6278270;28;19983;-71
2023/06/11 05:25:27;;;;;;;;;;;;;;;;;;6260912;28;20130;-70
2023/06/11 05:28:34;;;;;;;;;;;;;;;;;;6277774;28;19983;-72
2023/06/11 05:31:39;;;;;;;;;;;;;;;;;;6261484;28;20086;-71
2023/06/11 05:34:45;;;;;;;;;;;;;;;;;;6277835;28;19980;-72
2023/06/11 05:37:55;;;;;;;;;;;;;;;;;;6262398;28;20276;-72
2023/06/11 05:41:01;;;;;;;;;;;;;;;;;;6261116;28;19976;-71
2023/06/11 05:44:06;;;;;;;;;;;;;;;;;;6276844;28;19988;-72
2023/06/11 05:47:12;;;;;;;;;;;;;;;;;;6261690;28;19988;-71
2023/06/11 05:50:17;;;;;;;;;;;;;;;;;;6244469;28;19976;-71
2023/06/11 05:53:24;;;;;;;;;;;;;;;;;;6261458;28;19989;-72
2023/06/11 05:56:30;;;;;;;;;;;;;;;;;;6244428;28;20016;-73
2023/06/11 05:59:35;;;;;;;;;;;;;;;;;;6277033;28;19984;-72
2023/06/11 06:02:40;;;;;;;1.30;1.30;;;;;;;;;;6261991;28;19979;-73
2023/06/11 06:05:52;;;;;;;1.20;1.10;;;;;;;;;;6243350;28;20288;-72
2023/06/11 06:08:59;;;;;;;1.10;1.10;;;;;;;;;;6259599;28;20327;-71
2023/06/11 06:12:05;;;;;;;1.00;1.00;;;;;;;;;;6284824;28;20267;-71
2023/06/11 06:15:12;;;;;;;1.30;1.30;;;;;;;;;;6267894;28;20295;-72
2023/06/11 06:18:19;;;;;;;1.10;1.10;;;;;;;;;;6268016;28;20423;-72
2023/06/11 06:21:25;;;;;;;1.13;1.10;;;;;;;;;;6267423;28;20279;-72
2023/06/11 06:24:32;;;;;;;1.10;1.10;;;;;;;;;;6267455;28;20307;-72
2023/06/11 06:27:37;;;;;;;;;;;;;;;;;;6268624;28;20198;-72
2023/06/11 06:30:46;;;;;;;1.42;1.13;;;;;;;;;;6266864;28;25104;-72
2023/06/11 06:33:51;;;;;;;;;;;;;;;;;;6267791;28;20322;-72
2023/06/11 06:37:00;;;;;;;;;;;;;;;;;;6268023;28;19991;-72
2023/06/11 06:40:07;;;;;;;;;;;;;;;;;;6267716;28;20256;-72
2023/06/11 06:43:14;;;;;;;0.85;0.85;;;;;;;;;;6268054;28;20269;-72
2023/06/11 06:46:20;;;;;;;0.85;0.85;;;;;;;;;;6267081;28;20262;-72
2023/06/11 06:49:26;;;;;;;1.00;1.00;;;;;;;;;;6285259;28;20307;-71
2023/06/11 06:52:31;;;;;;;1.20;1.10;;;;;;;;;;6285341;28;20267;-73
2023/06/11 06:55:39;;;;;;;1.10;1.05;;;;;;;;;;6266954;28;20496;-71
2023/06/11 06:58:46;;;;;;;1.20;1.20;;;;;;;;;;6266770;28;20298;-71
2023/06/11 07:01:51;;;;;;;1.10;1.10;;;;;;;;;;6266994;28;20271;-72
2023/06/11 07:04:57;;;;;;;1.58;1.02;;;;;;;;;;6266236;28;20298;-72
2023/06/11 07:08:03;;;;;;;0.98;0.98;;;;;;;;;;6267377;28;20428;-71
2023/06/11 07:11:10;;;;;;;1.05;1.05;;;;;;;;;;6266440;28;20292;-72
2023/06/11 07:14:18;;;;;;;1.90;0.90;;;;;;;;;;6265817;28;20295;-71
2023/06/11 07:17:25;;;;;;;3.30;1.23;;;;;;;;;;6267249;28;20472;-72
2023/06/11 07:20:32;;;;;;;1.10;1.10;;;;;;;;;;6266741;28;20298;-74
2023/06/11 07:23:37;;;;;;;1.13;1.13;;;;;;;;;;6266419;28;20396;-73
2023/06/11 07:26:44;;;;;;;1.05;1.05;;;;;;;;;;6267270;28;20271;-71
2023/06/11 07:29:50;;;;;;;1.15;1.15;;;;;;;;;;6265980;28;20310;-71
2023/06/11 07:32:56;;;;;;;2.05;1.45;;;;;;;;;;6267301;28;20263;-71
2023/06/11 07:36:01;;;;;;;1.08;1.08;;;;;;;;;;6266373;28;20282;-72
2023/06/11 07:39:08;;;;;;;1.05;1.05;;;;;;;;;;6266132;28;20481;-71
2023/06/11 07:42:14;;;;;;;1.33;1.33;;;;;;;;;;6268164;28;20270;-72
2023/06/11 07:45:20;;;;;;;1.20;1.20;;;;;;;;;;6271245;28;20299;-71
2023/06/11 07:48:27;;;;;;;1.58;1.20;;;;;;;;;;6271084;28;20576;-71
2023/06/11 07:51:33;;;;;;;4.35;1.42;;;;;;;;;;6271503;28;20589;-72
2023/06/11 07:54:42;;;;;;;;;;;;;;;;;;6271422;28;20294;-72
2023/06/11 07:57:48;;;;;;;;;;;;;;;;;;6289978;28;20272;-72
2023/06/11 08:00:53;;;;;;;;;;;;;;;;;;6289125;28;19987;-72
2023/06/11 08:03:58;;;;;;;;;;;;;;;;;;6288642;28;19991;-74
2023/06/11 08:07:03;;;;;;;1.10;1.10;;;;;;;;;;6289036;28;20135;-72
2023/06/11 08:10:09;;;;;;;1.02;1.02;;;;;;;;;;6288317;28;20580;-72
2023/06/11 08:13:17;;;;;;;1.42;1.20;;;;;;;;;;6263062;28;20263;-73
2023/06/11 08:16:22;;;;;;;;;;;;;;;;;;6263694;28;20272;-73
2023/06/11 08:19:28;;;;;;;2.13;1.00;;;;;;;;;;6263781;28;19996;-73
2023/06/11 08:22:33;;;;;;;5.15;1.70;;;;;;;;;;6263612;28;20273;-72
2023/06/11 08:25:39;;;;;;;1.20;1.20;;;;;;;;;;6263611;28;20295;-71
2023/06/11 08:28:45;;;;;;;1.17;1.17;;;;;;;;;;6261777;28;20395;-71
2023/06/11 08:31:51;;;;;;;2.10;1.20;;;;;;;;;;6263725;28;20283;-71
2023/06/11 08:34:57;;;;;;;2.90;1.20;;;;;;;;;;6261427;28;20437;-71
2023/06/11 08:38:02;;;;;;;2.15;1.42;;;;;;;;;;6246177;28;20679;-71
2023/06/11 08:41:10;;;;;;;1.15;1.15;;;;;;;;;;6262957;28;20299;-69
2023/06/11 08:44:17;;;;;;;5.25;1.48;;;;;;;;;;6261890;28;20363;-74
2023/06/11 08:47:22;;;;;;;1.48;1.40;;;;;;;;;;6263232;28;20548;-71
2023/06/11 08:50:28;;;;;;;1.02;0.90;;;;;;;;;;6262891;28;20303;-72
2023/06/11 08:53:33;;;;;;;1.20;1.20;;;;;;;;;;6262511;28;20311;-72
2023/06/11 08:56:38;;;;;;;1.10;1.10;;;;;;;;;;6263056;28;20267;-72
2023/06/11 08:59:45;;;;;;;1.20;1.20;;;;;;;;;;6262868;28;20355;-72
2023/06/11 09:02:50;;;;;;;1.20;1.20;;;;;;;;;;6262873;28;20316;-74
2023/06/11 09:05:56;;;;;;;3.20;1.25;;;;;;;;;;6262784;28;20287;-73
2023/06/11 09:09:02;;;;;;;1.13;1.13;;;;;;;;;;6262600;28;20469;-72
2023/06/11 09:12:09;;;;;;;1.10;1.10;;;;;;;;;;6278428;28;20283;-72
2023/06/11 09:15:16;;;;;;;8.27;1.77;;;;;;;;;;6289616;28;20330;-72
2023/06/11 09:18:22;;;;;;;1.75;1.20;;;;;;;;;;6289204;28;20263;-71
2023/06/11 09:21:28;;;;;;;1.40;1.20;;;;;;;;;;6288060;28;20272;-72
2023/06/11 09:24:34;;;;;;;1.55;1.52;;;;;;;;;;6287017;28;20454;-73
2023/06/11 09:27:39;;;;;;;2.47;1.23;;;;;;;;;;6287834;28;20448;-73
2023/06/11 09:30:55;;;;;;;1.20;1.20;;;;;;;;;;6286329;28;20294;-73
2023/06/11 09:34:03;;;;;;;1.58;1.40;;;;;;;;;;6286619;28;20295;-71
2023/06/11 09:37:12;;;;;;;2.30;1.42;;;;;;;;;;6270098;28;20452;-69
2023/06/11 09:40:19;;;;;;;3.35;1.50;;;;;;;;;;6286297;28;20299;-70
2023/06/11 09:43:25;;;;;;;1.42;1.30;;;;;;;;;;6286270;28;20275;-70
2023/06/11 09:46:31;;;;;;;1.23;1.20;;;;;;;;;;6287023;28;20291;-71
2023/06/11 09:49:37;;;;;;;2.42;1.25;;;;;;;;;;6286393;28;20599;-71
2023/06/11 09:52:43;;;;;;;1.30;1.30;;;;;;;;;;6287124;28;20283;-72
2023/06/11 09:55:50;;;;;;;1.48;1.25;;;;;;;;;;6286215;28;20294;-70
2023/06/11 09:59:17;;;;;;;1.70;1.17;;;;;;;;;;6286208;28;20291;-69
2023/06/11 10:02:24;;;;;;;1.33;1.10;;;;;;;;;;6286701;28;20469;-72
2023/06/11 10:05:30;;;;;;;1.20;1.20;;;;;;;;;;6268510;28;20291;-72
2023/06/11 10:08:37;;;;;;;1.10;1.10;;;;;;;;;;6286227;28;20271;-73
2023/06/11 10:11:42;;;;;;;1.75;1.40;;;;;;;;;;6286643;28;20287;-73
2023/06/11 10:14:52;;;;;;;2.95;1.33;;;;;;;;;;6286523;28;20579;-72
2023/06/11 10:17:59;;;;;;;1.00;1.00;;;;;;;;;;6287290;28;20268;-72
2023/06/11 10:21:05;;;;;;;1.33;1.23;;;;;;;;;;6286653;28;20310;-72
2023/06/11 10:24:22;;;;;;;1.30;1.13;;;;;;;;;;6286048;28;20295;-72
2023/06/11 10:27:36;;;;;;;1.33;1.20;;;;;;;;;;6286073;28;20272;-74
2023/06/11 10:30:53;;;;;;;1.40;1.40;;;;;;;;;;6284945;28;20299;-73
2023/06/11 10:34:04;;;;;;;3.58;1.75;;;;;;;;;;6285315;28;20291;-71
2023/06/11 10:37:11;;;;;;;7.30;1.30;;;;;;;;;;6286017;28;20267;-72
2023/06/11 10:40:17;;;;;;;1.02;1.00;;;;;;;;;;6285679;28;20295;-73
2023/06/11 10:43:25;;;;;;;4.70;1.50;;;;;;;;;;6284744;28;20271;-73
2023/06/11 10:46:30;;;;;;;1.40;1.30;;;;;;;;;;6285588;28;20271;-73
2023/06/11 10:49:36;;;;;;;1.10;1.10;;;;;;;;;;6284821;28;20290;-73
2023/06/11 10:52:51;;;;;;;5.05;1.35;;;;;;;;;;6285294;28;20295;-73
2023/06/11 10:55:56;;;;;;;2.63;1.13;;;;;;;;;;6284997;28;20294;-72
2023/06/11 10:59:01;;;;;;;12.20;1.55;;;;;;;;;;6284644;28;20480;-72
2023/06/11 11:02:07;;;;;;;4.25;1.10;;;;;;;;;;6284813;28;20355;-72
2023/06/11 11:05:14;;;;;;;1.20;1.20;;;;;;;;;;6284642;28;20367;-72
2023/06/11 11:08:20;;;;;;;1.20;1.20;;;;;;;;;;6285142;28;20291;-73
2023/06/11 11:11:29;;;;;;;5.00;1.40;;;;;;;;;;6283975;28;20263;-72
2023/06/11 11:14:35;;;;;;;23.88;1.77;;;;;;;;;;6284271;28;20291;-74
2023/06/11 11:17:41;;;;;;;3.55;1.40;;;;;;;;;;6283532;28;20281;-71
2023/06/11 11:20:48;;;;;;;1.35;1.30;;;;;;;;;;6283817;28;20317;-73
2023/06/11 11:23:53;;;;;;;7.13;1.35;;;;;;;;;;6283527;28;20298;-72
2023/06/11 11:26:58;;;;;;;3.60;1.20;;;;;;;;;;6284288;28;20271;-72
2023/06/11 11:30:06;;;;;;;2.22;1.20;;;;;;;;;;6284010;28;20298;-72
2023/06/11 11:33:12;;;;;;;2.63;1.20;;;;;;;;;;6284803;28;20288;-72
2023/06/11 11:36:19;;;;;;;4.53;1.30;;;;;;;;;;6284474;28;20290;-73
2023/06/11 11:39:24;;;;;;;2.05;1.20;;;;;;;;;;6283961;28;20328;-72
2023/06/11 11:42:29;;;;;;;5.72;1.52;;;;;;;;;;6283852;28;20551;-72
2023/06/11 11:45:35;;;;;;;3.25;1.50;;;;;;;;;;6282813;28;20639;-72
2023/06/11 11:48:43;;;;;;;2.17;1.45;;;;;;;;;;6283197;28;20351;-72
2023/06/11 11:51:52;;;;;;;2.08;1.20;;;;;;;;;;6284150;28;20267;-74
2023/06/11 11:54:57;;;;;;;8.07;1.20;;;;;;;;;;6283304;28;20295;-72
2023/06/11 11:58:05;;;;;;;2.17;1.40;;;;;;;;;;6284015;28;20267;-72
2023/06/11 12:01:21;;;;;;;1.88;1.35;;;;;;;;;;6283932;28;20294;-72
2023/06/11 12:04:35;;;;;;;3.92;1.23;;;;;;;;;;6265834;28;20588;-72
2023/06/11 12:07:52;;;;;;;1.50;1.40;;;;;;;;;;6284107;28;20267;-72
2023/06/11 12:10:58;;;;;;;6.75;1.20;;;;;;;;;;6283562;28;20283;-73
2023/06/11 12:14:03;;;;;;;3.25;1.20;;;;;;;;;;6283147;28;20437;-73
2023/06/11 12:17:10;;;;;;;3.78;1.52;;;;;;;;;;6284966;28;20283;-72
2023/06/11 12:20:17;;;;;;;1.20;1.20;;;;;;;;;;6284831;28;20291;-73
2023/06/11 12:23:23;;;;;;;1.17;1.10;;;;;;;;;;6284067;28;20455;-71
2023/06/11 12:26:28;;;;;;;7.10;1.60;;;;;;;;;;6283688;28;20263;-73
2023/06/11 12:29:34;;;;;;;1.30;1.30;;;;;;;;;;6286664;28;20303;-73
2023/06/11 12:32:39;;;;;;;1.25;1.17;;;;;;;;;;6270850;28;20287;-72
2023/06/11 12:35:45;;;;;;;1.65;1.10;;;;;;;;;;6288016;28;20599;-71
2023/06/11 12:38:51;;;;;;;4.45;1.30;;;;;;;;;;6288030;28;20306;-72
2023/06/11 12:41:56;;;;;;;4.32;1.75;;;;;;;;;;6288341;28;20263;-72
2023/06/11 12:45:03;;;;;;;2.53;1.50;;;;;;;;;;6287824;28;20295;-71
2023/06/11 12:48:11;;;;;;;2.03;1.10;;;;;;;;;;6288057;28;20576;-72
2023/06/11 12:51:17;;;;;;;2.28;1.20;;;;;;;;;;6287493;28;20295;-72
2023/06/11 12:54:25;;;;;;;1.10;1.10;;;;;;;;;;6287510;28;20302;-73
2023/06/11 12:57:30;;;;;;;5.57;1.42;;;;;;;;;;6270525;28;20426;-73
2023/06/11 13:00:36;;;;;;;1.10;1.10;;;;;;;;;;6287635;28;20298;-73
2023/06/11 13:03:41;;;;;;;6.95;1.25;;;;;;;;;;6286819;28;20556;-72
2023/06/11 13:06:47;;;;;;;1.60;1.50;;;;;;;;;;6287853;28;20271;-72
2023/06/11 13:09:56;;;;;;;2.05;1.40;;;;;;;;;;6286884;28;20302;-72
2023/06/11 13:13:02;;;;;;;1.65;1.05;;;;;;;;;;6287461;28;20547;-71
2023/06/11 13:16:07;;;;;;;6.28;1.50;;;;;;;;;;6286706;28;20528;-72
2023/06/11 13:19:13;;;;;;;2.88;1.23;;;;;;;;;;6287243;28;20302;-71
2023/06/11 13:22:18;;;;;;;3.08;1.20;;;;;;;;;;6287808;28;20401;-73
2023/06/11 13:25:25;;;;;;;1.02;1.00;;;;;;;;;;6269036;28;20290;-71
2023/06/11 13:28:31;;;;;;;3.33;1.30;;;;;;;;;;6287022;28;20267;-71
2023/06/11 13:31:36;;;;;;;1.40;1.40;;;;;;;;;;6287963;28;20271;-72
2023/06/11 13:34:41;;;;;;;1.42;1.02;;;;;;;;;;6285913;28;20300;-72
2023/06/11 13:37:46;;;;;;;1.90;1.20;;;;;;;;;;6287464;28;20271;-73
2023/06/11 13:40:54;;;;;;;1.23;1.23;;;;;;;;;;6285546;28;20290;-73
2023/06/11 13:43:59;;;;;;;1.27;1.20;;;;;;;;;;6286583;28;20290;-74
2023/06/11 13:47:04;;;;;;;1.95;1.40;;;;;;;;;;6286727;28;20122;-72
2023/06/11 13:50:12;;;;;;;4.22;1.05;;;;;;;;;;6286232;28;20551;-73
2023/06/11 13:53:19;;;;;;;2.60;1.45;;;;;;;;;;6269265;28;20547;-73
2023/06/11 13:56:26;;;;;;;1.30;1.30;;;;;;;;;;6289320;28;20279;-74
2023/06/11 13:59:32;;;;;;;1.15;1.15;;;;;;;;;;6278374;28;20298;-73
2023/06/11 14:02:37;;;;;;;1.50;1.50;;;;;;;;;;6285960;28;20299;-74
2023/06/11 14:05:43;;;;;;;1.27;1.27;;;;;;;;;;6286127;28;20307;-73
2023/06/11 14:08:48;;;;;;;1.60;1.50;;;;;;;;;;6285809;28;20571;-73
2023/06/11 14:11:55;;;;;;;5.50;1.50;;;;;;;;;;6286480;28;20264;-72
2023/06/11 14:15:00;;;;;;;1.38;1.38;;;;;;;;;;6285527;28;20326;-73
2023/06/11 14:18:06;;;;;;;1.35;1.25;;;;;;;;;;6286109;28;20457;-72
2023/06/11 14:21:12;;;;;;;3.22;1.60;;;;;;;;;;6268451;28;20307;-72
2023/06/11 14:24:18;;;;;;;3.35;1.35;;;;;;;;;;6285365;28;20298;-74
2023/06/11 14:27:24;;;;;;;2.13;1.20;;;;;;;;;;6286260;28;20305;-73
2023/06/11 14:30:29;;;;;;;1.30;1.30;;;;;;;;;;6285420;28;20455;-73
2023/06/11 14:33:34;;;;;;;1.50;1.40;;;;;;;;;;6285065;28;20311;-73
2023/06/11 14:36:40;;;;;;;3.10;1.30;;;;;;;;;;6285536;28;20299;-73
2023/06/11 14:39:45;;;;;;;1.73;1.67;;;;;;;;;;6284656;28;20298;-73
2023/06/11 14:42:52;;;;;;;6.10;1.40;;;;;;;;;;6285739;28;20283;-73
2023/06/11 14:45:57;;;;;;;1.20;1.20;;;;;;;;;;6285164;28;20302;-73
2023/06/11 14:49:02;;;;;;;3.65;1.40;;;;;;;;;;6284769;28;20294;-73
2023/06/11 14:52:15;;;;;;;3.20;1.20;;;;;;;;;;6285052;28;20267;-72
2023/06/11 14:55:21;;;;;;;1.20;1.20;;;;;;;;;;6284897;28;20580;-73
2023/06/11 14:58:27;;;;;;;10.68;1.60;;;;;;;;;;6284110;28;20263;-73
2023/06/11 15:01:32;;;;;;;8.57;1.50;;;;;;;;;;6284939;28;20270;-72
2023/06/11 15:04:39;;;;;;;2.30;1.45;;;;;;;;;;6283505;28;20299;-73
2023/06/11 15:07:44;;;;;;;1.30;1.20;;;;;;;;;;6284819;28;20263;-73
2023/06/11 15:10:49;;;;;;;3.53;1.52;;;;;;;;;;6284132;28;20295;-73
2023/06/11 15:13:56;;;;;;;2.88;1.33;;;;;;;;;;6284209;28;20291;-72
2023/06/11 15:17:01;;;;;;;3.70;1.33;;;;;;;;;;6285169;28;20275;-71
2023/06/11 15:20:08;;;;;;;5.15;1.20;;;;;;;;;;6283981;28;20303;-72
2023/06/11 15:23:15;;;;;;;1.92;1.38;;;;;;;;;;6284724;28;20270;-72
2023/06/11 15:26:20;;;;;;;5.53;1.50;;;;;;;;;;6284291;28;20295;-73
2023/06/11 15:29:27;;;;;;;2.67;1.20;;;;;;;;;;6283944;28;20295;-72
2023/06/11 15:32:32;;;;;;;4.18;1.50;;;;;;;;;;6284665;28;20271;-73
2023/06/11 15:35:37;;;;;;;1.65;1.30;;;;;;;;;;6283850;28;20314;-73
2023/06/11 15:38:43;;;;;;;1.50;1.38;;;;;;;;;;6284080;28;20291;-73
2023/06/11 15:41:48;;;;;;;3.70;1.40;;;;;;;;;;6284478;28;20295;-72
2023/06/11 15:44:54;;;;;;;2.20;1.17;;;;;;;;;;6283646;28;20375;-73
2023/06/11 15:48:00;;;;;;;1.20;1.20;;;;;;;;;;6286309;28;20267;-72
2023/06/11 15:51:05;;;;;;;1.70;1.70;;;;;;;;;;6286390;28;20306;-73
2023/06/11 15:54:11;;;;;;;1.10;1.10;;;;;;;;;;6286450;28;20295;-72
2023/06/11 15:57:17;;;;;;;1.80;1.60;;;;;;;;;;6286297;28;20279;-72
2023/06/11 16:00:24;;;;;;;5.32;1.73;;;;;;;;;;6285773;28;20299;-72
2023/06/11 16:03:29;;;;;;;5.10;1.67;;;;;;;;;;6288018;28;20291;-72
2023/06/11 16:06:35;;;;;;;3.40;3.05;;;;;;;;;;6292316;28;20275;-74
2023/06/11 16:09:40;;;;;;;6.45;2.17;;;;;;;;;;6290341;28;20336;-73
2023/06/11 16:12:46;;;;;;;3.17;1.95;;;;;;;;;;6290571;28;20271;-74
2023/06/11 16:15:53;;;;;;;1.55;1.45;;;;;;;;;;6272277;28;20306;-72
2023/06/11 16:18:58;;;;;;;5.97;5.57;;;;;;;;;;6288948;28;20302;-73
2023/06/11 16:22:03;;;;;;;4.10;2.20;;;;;;;;;;6290108;28;20263;-73
2023/06/11 16:25:09;;;;;;;2.08;1.90;;;;;;;;;;6289662;28;20299;-72
2023/06/11 16:28:16;;;;;;;6.32;1.80;;;;;;;;;;6289808;28;20279;-72
2023/06/11 16:31:23;;;;;;;4.82;1.33;;;;;;;;;;6288401;28;20263;-72
2023/06/11 16:34:28;;;;;;;1.88;1.40;;;;;;;;;;6288395;28;20300;-74
2023/06/11 16:37:33;;;;;;;9.35;2.13;;;;;;;;;;6289281;28;20286;-72
2023/06/11 16:40:39;;;;;;;3.22;2.88;;;;;;;;;;6288267;28;20294;-73
2023/06/11 16:43:44;;;;;;;5.82;3.53;;;;;;;;;;6288568;28;20465;-73
2023/06/11 16:46:51;;;;;;;6.93;2.90;;;;;;;;;;6288967;28;20471;-73
2023/06/11 16:49:58;;;;;;;2.97;1.60;;;;;;;;;;6288325;28;20480;-72
2023/06/11 16:53:03;;;;;;;5.18;2.83;;;;;;;;;;6289390;28;20272;-72
2023/06/11 16:56:11;;;;;;;4.90;2.20;;;;;;;;;;6287394;28;20303;-72
2023/06/11 16:59:17;;;;;;;2.60;2.25;;;;;;;;;;6287575;28;20291;-73
2023/06/11 17:02:24;;;;;;;3.63;1.70;;;;;;;;;;6288525;28;20295;-73
2023/06/11 17:05:29;;;;;;;4.82;1.55;;;;;;;;;;6288153;28;20298;-73
2023/06/11 17:08:34;;;;;;;1.67;1.67;;;;;;;;;;6287469;28;20268;-73
2023/06/11 17:11:40;;;;;;;1.58;1.58;;;;;;;;;;6289114;28;20349;-72
2023/06/11 17:14:45;;;;;;;2.88;1.65;;;;;;;;;;6286132;28;20290;-73
2023/06/11 17:17:53;;;;;;;1.75;1.75;;;;;;;;;;6288492;28;20272;-73
2023/06/11 17:20:58;;;;;;;6.28;2.13;;;;;;;;;;6287897;28;20594;-74
2023/06/11 17:24:04;;;;;;;8.13;1.92;;;;;;;;;;6287501;28;20299;-73
2023/06/11 17:27:11;;;;;;;5.57;1.90;;;;;;;;;;6287952;28;20271;-74
2023/06/11 17:30:16;;;;;;;11.13;2.20;;;;;;;;;;6287623;28;20583;-72
2023/06/11 17:33:23;;;;;;;3.40;1.60;;;;;;;;;;6287786;28;20271;-72
2023/06/11 17:36:28;;;;;;;4.55;2.15;;;;;;;;;;6287610;28;20273;-73
2023/06/11 17:39:33;;;;;;;10.48;2.30;;;;;;;;;;6287446;28;20306;-73
2023/06/11 17:42:41;;;;;;;14.95;1.77;;;;;;;;;;6287951;28;20263;-71
2023/06/11 17:45:46;;;;;;;9.30;2.00;;;;;;;;;;6286909;28;20295;-72
2023/06/11 17:48:55;;;;;;;6.05;2.00;;;;;;;;;;6286558;28;20303;-72
2023/06/11 17:52:01;;;;;;;1.33;1.33;;;;;;;;;;6286855;28;20467;-71
2023/06/11 17:55:12;;;;;;;4.07;1.77;;;;;;;;;;6286286;28;20307;-71
2023/06/11 17:58:18;;;;;;;7.68;1.88;;;;;;;;;;6286945;28;20560;-70
2023/06/11 18:01:25;;;;;;;2.88;1.80;;;;;;;;;;6283677;28;20453;-72
2023/06/11 18:04:31;;;;;;;2.42;1.80;;;;;;;;;;6305248;28;20302;-71
2023/06/11 18:07:40;;;;;;;6.05;1.63;;;;;;;;;;6311253;28;20290;-71
2023/06/11 18:10:46;;;;;;;4.38;1.83;;;;;;;;;;6309734;28;20294;-70
2023/06/11 18:13:51;;;;;;;2.38;1.77;;;;;;;;;;6310127;28;20583;-72
2023/06/11 18:16:57;;;;;;;4.32;2.60;;;;;;;;;;6293538;28;20279;-73
2023/06/11 18:20:04;;;;;;;5.45;3.05;;;;;;;;;;6310916;28;20369;-72
2023/06/11 18:23:11;;;;;;;4.05;1.90;;;;;;;;;;6310867;28;20458;-71
2023/06/11 18:26:16;;;;;;;10.63;1.70;;;;;;;;;;6309898;28;20294;-73
2023/06/11 18:29:22;;;;;;;1.90;1.80;;;;;;;;;;6310495;28;20477;-72
2023/06/11 18:32:30;;;;;;;4.80;1.70;;;;;;;;;;6311187;28;20310;-72
2023/06/11 18:35:37;;;;;;;5.85;1.77;;;;;;;;;;6310038;28;20290;-73
2023/06/11 18:38:42;;;;;;;4.13;1.70;;;;;;;;;;6309551;28;20302;-73
2023/06/11 18:41:47;;;;;;;6.68;1.77;;;;;;;;;;6310580;28;20551;-71
2023/06/11 18:44:52;;;;;;;6.00;1.60;;;;;;;;;;6311071;28;20287;-72
2023/06/11 18:47:57;;;;;;;2.00;1.90;;;;;;;;;;6311656;28;20282;-72
2023/06/11 18:51:04;;;;;;;2.60;1.63;;;;;;;;;;6310961;28;20294;-72